createdAt,value
2018-05-13T00:00:16.491Z,90.00
2018-05-13T00:02:44.745Z,90.20
2018-05-13T00:05:13.074Z,90.10
2018-05-13T00:07:42.071Z,90.40
2018-05-13T00:10:10.308Z,90.40
2018-05-13T00:12:38.584Z,90.40
2018-05-13T00:15:06.873Z,90.50
2018-05-13T00:17:35.146Z,90.50
2018-05-13T00:20:03.412Z,90.70
2018-05-13T00:22:31.787Z,90.70
2018-05-13T00:25:00.083Z,90.90
2018-05-13T00:27:28.343Z,91.00
2018-05-13T00:29:56.615Z,91.20
2018-05-13T00:32:24.875Z,91.40
2018-05-13T00:34:53.168Z,91.40
2018-05-13T00:37:21.443Z,91.60
2018-05-13T00:39:49.719Z,91.70
2018-05-13T00:42:17.991Z,91.90
2018-05-13T00:44:46.247Z,92.00
2018-05-13T00:47:14.583Z,92.10
2018-05-13T00:49:42.843Z,92.30
2018-05-13T00:52:11.211Z,92.30
2018-05-13T00:54:51.520Z,92.60
2018-05-13T00:57:20.545Z,92.70
2018-05-13T00:59:48.801Z,92.70
2018-05-13T01:02:17.099Z,92.80
2018-05-13T01:04:45.375Z,92.80
2018-05-13T01:07:13.651Z,92.80
2018-05-13T01:09:41.921Z,93.00
2018-05-13T01:12:10.218Z,93.10
2018-05-13T01:14:38.490Z,93.10
2018-05-13T01:17:06.735Z,93.10
2018-05-13T01:19:35.042Z,93.20
2018-05-13T01:22:05.143Z,93.30
2018-05-13T01:24:33.370Z,93.40
2018-05-13T01:27:02.387Z,93.60
2018-05-13T01:29:30.703Z,93.50
2018-05-13T01:31:58.966Z,93.50
2018-05-13T01:34:27.234Z,93.40
2018-05-13T01:36:55.491Z,93.40
2018-05-13T01:39:23.752Z,93.70
2018-05-13T01:41:52.768Z,93.80
2018-05-13T01:44:21.032Z,93.80
2018-05-13T01:46:49.331Z,93.90
2018-05-13T01:49:17.583Z,94.10
2018-05-13T01:51:45.887Z,94.10
2018-05-13T01:54:14.164Z,94.20
2018-05-13T01:56:42.422Z,94.30
2018-05-13T01:59:10.671Z,94.30
2018-05-13T02:01:39.706Z,94.50
2018-05-13T02:04:07.962Z,94.50
2018-05-13T02:06:36.219Z,94.60
2018-05-13T02:09:05.230Z,94.80
2018-05-13T02:11:33.523Z,94.80
2018-05-13T02:14:01.813Z,94.90
2018-05-13T02:16:30.079Z,94.90
2018-05-13T02:18:58.343Z,95.00
2018-05-13T02:21:26.628Z,95.00
2018-05-13T02:23:54.883Z,95.00
2018-05-13T02:26:23.136Z,95.00
2018-05-13T02:28:52.146Z,95.20
2018-05-13T02:31:20.408Z,95.10
2018-05-13T02:33:49.448Z,95.40
2018-05-13T02:36:17.724Z,95.40
2018-05-13T02:38:46.003Z,95.60
2018-05-13T02:41:14.279Z,95.70
2018-05-13T02:43:42.542Z,95.70
2018-05-13T02:46:10.823Z,95.60
2018-05-13T02:48:39.103Z,95.50
2018-05-13T02:51:07.361Z,95.60
2018-05-13T02:53:35.620Z,95.60
2018-05-13T02:56:03.879Z,95.70
2018-05-13T02:58:32.920Z,96.00
2018-05-13T03:01:01.191Z,96.00
2018-05-13T03:03:29.463Z,96.10
2018-05-13T03:05:57.723Z,96.20
2018-05-13T03:08:25.979Z,96.30
2018-05-13T03:10:55.013Z,96.50
2018-05-13T03:13:23.259Z,96.50
2018-05-13T03:15:51.523Z,96.50
2018-05-13T03:18:20.548Z,96.80
2018-05-13T03:20:48.829Z,96.80
2018-05-13T03:23:17.075Z,97.10
2018-05-13T03:25:45.343Z,96.60
2018-05-13T03:28:14.366Z,96.40
2018-05-13T03:30:42.644Z,96.40
2018-05-13T03:33:10.929Z,96.40
2018-05-13T03:35:39.203Z,96.70
2018-05-13T03:38:07.447Z,96.60
2018-05-13T03:40:35.686Z,96.50
2018-05-13T03:43:04.029Z,96.30
2018-05-13T03:45:32.299Z,96.30
2018-05-13T03:48:00.555Z,96.30
2018-05-13T03:50:28.862Z,96.40
2018-05-13T03:52:57.127Z,96.30
2018-05-13T03:55:25.407Z,96.00
2018-05-13T03:57:53.673Z,95.90
2018-05-13T04:00:21.918Z,96.00
2018-05-13T04:02:50.948Z,95.70
2018-05-13T04:05:19.228Z,95.70
2018-05-13T04:11:17.607Z,95.10
2018-05-13T04:13:57.980Z,94.70
2018-05-13T04:16:26.261Z,94.50
2018-05-13T04:18:54.527Z,94.00
2018-05-13T04:21:22.776Z,93.50
2018-05-13T04:23:51.084Z,93.00
2018-05-13T04:26:19.363Z,92.70
2018-05-13T04:28:47.635Z,92.30
2018-05-13T04:31:15.881Z,91.80
2018-05-13T04:33:44.895Z,90.90
2018-05-13T04:36:13.136Z,90.90
2018-05-13T04:38:42.164Z,89.10
2018-05-13T04:41:10.402Z,89.10
2018-05-13T04:43:39.430Z,87.00
2018-05-13T04:46:07.676Z,86.90
2018-05-13T04:48:36.694Z,84.20
2018-05-13T04:51:04.945Z,84.10
2018-05-13T04:53:33.967Z,81.80
2018-05-13T04:56:02.227Z,81.70
2018-05-13T04:58:30.466Z,80.40
2018-05-13T05:00:58.706Z,79.90
2018-05-13T05:03:26.964Z,78.10
2018-05-13T05:05:55.259Z,78.30
2018-05-13T05:08:23.536Z,77.10
2018-05-13T05:10:51.786Z,77.20
2018-05-13T05:13:20.088Z,75.90
2018-05-13T05:15:48.351Z,75.10
2018-05-13T05:18:16.623Z,74.80
2018-05-13T05:20:44.907Z,76.00
2018-05-13T05:23:13.159Z,75.90
2018-05-13T05:25:41.454Z,77.80
2018-05-13T05:28:09.698Z,75.40
2018-05-13T05:30:38.715Z,72.90
2018-05-13T05:33:06.964Z,72.70
2018-05-13T05:35:35.992Z,73.00
2018-05-13T05:38:04.236Z,72.90
2018-05-13T05:40:32.538Z,71.60
2018-05-13T05:43:00.783Z,71.00
2018-05-13T05:45:29.803Z,67.20
2018-05-13T05:47:58.084Z,67.10
2018-05-13T05:50:26.358Z,63.20
2018-05-13T05:52:54.635Z,61.30
2018-05-13T05:55:22.887Z,59.40
2018-05-13T05:57:51.188Z,59.10
2018-05-13T06:00:19.466Z,58.40
2018-05-13T06:02:47.754Z,57.70
2018-05-13T06:05:16.013Z,57.10
2018-05-13T06:07:44.282Z,55.90
2018-05-13T06:10:12.567Z,55.90
2018-05-13T06:12:40.834Z,57.90
2018-05-13T06:15:09.087Z,57.00
2018-05-13T06:17:37.391Z,56.60
2018-05-13T06:20:05.672Z,57.90
2018-05-13T06:22:33.944Z,58.50
2018-05-13T06:25:02.196Z,58.10
2018-05-13T06:27:30.447Z,54.80
2018-05-13T06:29:59.475Z,50.10
2018-05-13T06:32:27.720Z,50.00
2018-05-13T06:34:56.751Z,51.00
2018-05-13T06:37:25.003Z,50.90
2018-05-13T06:39:53.254Z,54.20
2018-05-13T06:42:22.287Z,59.00
2018-05-13T06:44:50.544Z,59.00
2018-05-13T06:47:18.854Z,58.60
2018-05-13T06:49:47.149Z,59.20
2018-05-13T06:52:15.491Z,59.10
2018-05-13T06:54:43.741Z,56.80
2018-05-13T06:57:12.764Z,58.70
2018-05-13T06:59:41.012Z,58.70
2018-05-13T07:02:09.311Z,57.10
2018-05-13T07:04:37.563Z,58.00
2018-05-13T07:07:05.815Z,59.20
2018-05-13T07:09:34.860Z,62.10
2018-05-13T07:12:03.131Z,62.10
2018-05-13T07:14:31.371Z,59.60
2018-05-13T07:17:00.382Z,59.80
2018-05-13T07:19:28.674Z,59.70
2018-05-13T07:21:56.933Z,57.70
2018-05-13T07:24:25.180Z,57.50
2018-05-13T07:26:53.503Z,57.40
2018-05-13T07:29:21.791Z,58.30
2018-05-13T07:31:50.055Z,60.20
2018-05-13T07:34:18.309Z,60.20
2018-05-13T07:36:46.556Z,61.10
2018-05-13T07:39:15.603Z,60.80
2018-05-13T07:41:43.855Z,60.80
2018-05-13T07:44:12.100Z,60.70
2018-05-13T07:46:41.119Z,62.20
2018-05-13T07:49:09.415Z,62.10
2018-05-13T07:51:37.671Z,61.00
2018-05-13T07:54:05.935Z,60.00
2018-05-13T07:56:34.971Z,59.30
2018-05-13T07:59:03.211Z,59.20
2018-05-13T08:01:31.467Z,59.30
2018-05-13T08:04:00.479Z,58.60
2018-05-13T08:06:28.779Z,58.60
2018-05-13T08:08:57.063Z,58.70
2018-05-13T08:11:25.335Z,57.70
2018-05-13T08:13:53.585Z,58.40
2018-05-13T08:16:21.860Z,57.30
2018-05-13T08:18:50.107Z,58.00
2018-05-13T08:21:19.198Z,58.00
2018-05-13T08:23:47.427Z,57.70
2018-05-13T08:26:15.694Z,56.80
2018-05-13T08:28:43.953Z,55.80
2018-05-13T08:31:12.257Z,55.30
2018-05-13T08:33:40.526Z,55.40
2018-05-13T08:36:08.808Z,56.80
2018-05-13T08:38:37.055Z,56.40
2018-05-13T08:41:05.354Z,55.10
2018-05-13T08:43:33.608Z,54.10
2018-05-13T08:46:01.901Z,54.20
2018-05-13T08:48:30.263Z,53.60
2018-05-13T08:50:58.456Z,55.50
2018-05-13T08:53:26.736Z,56.20
2018-05-13T08:55:55.011Z,57.20
2018-05-13T08:58:23.268Z,56.60
2018-05-13T09:00:51.517Z,57.70
2018-05-13T09:03:19.831Z,57.30
2018-05-13T09:05:48.112Z,57.50
2018-05-13T09:08:16.363Z,57.80
2018-05-13T09:10:44.760Z,59.20
2018-05-13T09:13:13.015Z,58.70
2018-05-13T09:15:41.317Z,58.50
2018-05-13T09:18:09.584Z,58.20
2018-05-13T09:20:37.911Z,56.70
2018-05-13T09:23:06.128Z,56.30
2018-05-13T09:25:34.362Z,56.20
2018-05-13T09:28:03.387Z,54.70
2018-05-13T09:30:31.628Z,54.60
2018-05-13T09:33:00.717Z,54.50
2018-05-13T09:35:28.947Z,54.30
2018-05-13T09:37:57.204Z,54.40
2018-05-13T09:40:25.912Z,57.30
2018-05-13T09:42:54.183Z,57.50
2018-05-13T09:45:22.454Z,58.30
2018-05-13T09:47:50.709Z,57.10
2018-05-13T09:50:18.963Z,58.50
2018-05-13T09:52:48.004Z,59.40
2018-05-13T09:55:16.280Z,59.30
2018-05-13T09:57:44.548Z,56.90
2018-05-13T10:00:12.787Z,55.70
2018-05-13T10:02:41.823Z,56.00
2018-05-13T10:05:10.076Z,56.00
2018-05-13T10:07:38.326Z,56.70
2018-05-13T10:10:07.892Z,54.20
2018-05-13T10:12:36.153Z,54.20
2018-05-13T10:15:04.407Z,52.60
2018-05-13T10:17:32.694Z,53.60
2018-05-13T10:20:00.951Z,51.80
2018-05-13T10:22:29.295Z,51.90
2018-05-13T10:24:57.527Z,52.70
2018-05-13T10:27:25.803Z,54.10
2018-05-13T10:29:54.079Z,54.20
2018-05-13T10:32:22.356Z,53.50
2018-05-13T10:34:50.635Z,52.80
2018-05-13T10:37:18.907Z,54.50
2018-05-13T10:39:47.187Z,53.00
2018-05-13T10:42:16.443Z,54.00
2018-05-13T10:44:45.472Z,52.20
2018-05-13T10:47:13.712Z,52.20
2018-05-13T10:49:42.737Z,52.50
2018-05-13T10:52:10.983Z,52.40
2018-05-13T10:54:40.007Z,55.00
2018-05-13T10:57:08.257Z,54.90
2018-05-13T10:59:37.276Z,52.80
2018-05-13T11:02:05.547Z,52.80
2018-05-13T11:04:33.823Z,53.00
2018-05-13T11:07:02.071Z,53.80
2018-05-13T11:09:30.320Z,53.00
2018-05-13T11:11:58.559Z,54.40
2018-05-13T11:14:26.817Z,53.90
2018-05-13T11:16:55.047Z,52.70
2018-05-13T11:19:23.283Z,52.40
2018-05-13T11:21:51.544Z,50.60
2018-05-13T11:24:19.783Z,49.20
2018-05-13T11:26:48.817Z,48.50
2018-05-13T11:29:17.033Z,48.50
2018-05-13T11:31:45.288Z,47.60
2018-05-13T11:34:13.539Z,47.90
2018-05-13T11:36:41.816Z,49.20
2018-05-13T11:39:10.087Z,48.10
2018-05-13T11:41:38.363Z,48.70
2018-05-13T11:44:06.603Z,48.20
2018-05-13T11:46:35.655Z,47.10
2018-05-13T11:49:03.917Z,47.10
2018-05-13T11:51:32.147Z,47.10
2018-05-13T11:54:01.193Z,46.80
2018-05-13T11:56:29.495Z,46.80
2018-05-13T11:58:58.427Z,48.10
2018-05-13T12:01:26.715Z,48.10
2018-05-13T12:03:54.996Z,47.40
2018-05-13T12:06:23.233Z,48.30
2018-05-13T12:08:52.245Z,47.70
2018-05-13T12:11:20.534Z,47.70
2018-05-13T12:13:48.814Z,47.90
2018-05-13T12:16:17.052Z,47.90
2018-05-13T12:18:46.179Z,49.10
2018-05-13T12:21:14.411Z,49.00
2018-05-13T12:23:42.650Z,47.60
2018-05-13T12:26:10.906Z,47.80
2018-05-13T12:28:39.227Z,47.90
2018-05-13T12:31:07.454Z,48.30
2018-05-13T12:33:36.353Z,48.50
2018-05-13T12:36:04.619Z,48.10
2018-05-13T12:38:32.890Z,48.30
2018-05-13T12:41:01.137Z,47.30
2018-05-13T12:43:30.135Z,46.60
2018-05-13T12:45:59.138Z,47.80
2018-05-13T12:48:27.427Z,47.80
2018-05-13T12:50:55.711Z,47.60
2018-05-13T12:53:23.978Z,48.80
2018-05-13T12:55:52.333Z,48.10
2018-05-13T12:58:20.608Z,48.50
2018-05-13T13:00:48.774Z,48.70
2018-05-13T13:03:17.779Z,49.30
2018-05-13T13:05:46.995Z,49.30
2018-05-13T13:08:15.276Z,49.70
2018-05-13T13:10:43.515Z,49.40
2018-05-13T13:13:12.527Z,49.00
2018-05-13T13:15:40.815Z,48.90
2018-05-13T13:18:09.916Z,49.30
2018-05-13T13:20:38.188Z,49.30
2018-05-13T13:23:06.426Z,48.10
2018-05-13T13:25:35.479Z,48.00
2018-05-13T13:28:03.698Z,47.90
2018-05-13T13:30:32.805Z,47.30
2018-05-13T13:33:00.951Z,47.30
2018-05-13T13:35:30.348Z,47.60
2018-05-13T13:37:58.594Z,47.50
2018-05-13T13:40:26.846Z,46.90
2018-05-13T13:42:55.124Z,47.10
2018-05-13T13:45:23.364Z,47.80
2018-05-13T13:47:52.371Z,47.20
2018-05-13T13:50:20.611Z,47.20
2018-05-13T13:52:48.850Z,46.90
2018-05-13T13:55:17.103Z,47.50
2018-05-13T13:57:45.396Z,47.00
2018-05-13T14:00:13.668Z,47.20
2018-05-13T14:02:41.915Z,47.10
2018-05-13T14:05:10.157Z,47.30
2018-05-13T14:07:38.491Z,48.10
2018-05-13T14:10:06.747Z,48.40
2018-05-13T14:12:35.805Z,48.10
2018-05-13T14:15:04.064Z,48.10
2018-05-13T14:17:32.303Z,48.00
2018-05-13T14:20:00.596Z,48.00
2018-05-13T14:22:29.574Z,47.80
2018-05-13T14:24:57.851Z,47.80
2018-05-13T14:27:26.127Z,46.60
2018-05-13T14:29:54.507Z,47.20
2018-05-13T14:32:22.747Z,47.20
2018-05-13T14:34:51.875Z,48.70
2018-05-13T14:37:20.147Z,48.60
2018-05-13T14:39:48.444Z,48.90
2018-05-13T14:42:17.419Z,49.00
2018-05-13T14:44:45.653Z,49.00
2018-05-13T14:47:14.666Z,46.90
2018-05-13T14:49:42.907Z,46.90
2018-05-13T14:52:11.144Z,46.10
2018-05-13T14:54:39.411Z,47.40
2018-05-13T14:57:07.659Z,46.60
2018-05-13T14:59:35.901Z,46.90
2018-05-13T15:02:04.145Z,48.20
2018-05-13T15:04:32.379Z,48.20
2018-05-13T15:07:01.398Z,47.60
2018-05-13T15:09:29.639Z,47.50
2018-05-13T15:11:58.676Z,45.50
2018-05-13T15:14:26.907Z,45.50
2018-05-13T15:16:55.915Z,44.80
2018-05-13T15:19:24.152Z,44.70
2018-05-13T15:21:53.199Z,44.40
2018-05-13T15:24:21.489Z,44.40
2018-05-13T15:26:49.740Z,44.10
2018-05-13T15:29:17.962Z,44.50
2018-05-13T15:31:46.308Z,44.20
2018-05-13T15:34:14.580Z,45.00
2018-05-13T15:36:42.902Z,46.40
2018-05-13T15:39:11.136Z,47.30
2018-05-13T15:41:39.412Z,46.90
2018-05-13T15:44:07.664Z,46.60
2018-05-13T15:46:35.960Z,46.90
2018-05-13T15:49:04.239Z,47.60
2018-05-13T15:51:32.471Z,48.10
2018-05-13T15:54:01.499Z,47.60
2018-05-13T15:56:29.731Z,47.60
2018-05-13T15:58:58.740Z,48.90
2018-05-13T16:01:27.743Z,46.80
2018-05-13T16:03:56.144Z,46.70
2018-05-13T16:06:24.451Z,46.60
2018-05-13T16:08:53.391Z,46.60
2018-05-13T16:11:21.682Z,46.50
2018-05-13T16:13:49.926Z,45.90
2018-05-13T16:16:18.932Z,43.60
2018-05-13T16:18:47.243Z,43.50
2018-05-13T16:21:15.507Z,43.90
2018-05-13T16:23:43.782Z,42.80
2018-05-13T16:26:12.016Z,43.40
2018-05-13T16:28:41.043Z,42.90
2018-05-13T16:31:09.283Z,42.90
2018-05-13T16:33:38.283Z,43.60
2018-05-13T16:36:07.303Z,43.70
2018-05-13T16:38:35.600Z,43.60
2018-05-13T16:41:04.569Z,42.20
2018-05-13T16:43:32.803Z,42.20
2018-05-13T16:46:01.813Z,41.40
2018-05-13T16:48:30.422Z,41.20
2018-05-13T16:50:58.707Z,41.40
2018-05-13T16:53:26.949Z,41.40
2018-05-13T16:55:55.963Z,42.40
2018-05-13T16:58:24.198Z,42.40
2018-05-13T17:00:53.688Z,40.50
2018-05-13T17:03:21.920Z,40.40
2018-05-13T17:05:50.158Z,39.00
2018-05-13T17:08:19.171Z,39.40
2018-05-13T17:10:47.455Z,39.40
2018-05-13T17:13:15.699Z,38.90
2018-05-13T17:15:44.704Z,39.20
2018-05-13T17:18:13.816Z,39.30
2018-05-13T17:20:42.096Z,39.40
2018-05-13T17:23:10.370Z,39.70
2018-05-13T17:25:38.604Z,39.90
2018-05-13T17:28:07.616Z,41.20
2018-05-13T17:30:36.631Z,41.40
2018-05-13T17:33:04.908Z,41.40
2018-05-13T17:35:33.147Z,41.80
2018-05-13T17:38:02.157Z,42.10
2018-05-13T17:40:30.464Z,42.10
2018-05-13T17:42:58.731Z,42.50
2018-05-13T17:45:26.973Z,43.30
2018-05-13T17:47:55.987Z,43.20
2018-05-13T17:50:24.268Z,43.20
2018-05-13T17:52:52.543Z,42.90
2018-05-13T17:55:20.802Z,42.90
2018-05-13T17:57:49.047Z,43.20
2018-05-13T18:00:17.287Z,43.10
2018-05-13T18:02:45.549Z,43.40
2018-05-13T18:05:13.836Z,43.30
2018-05-13T18:07:42.076Z,43.70
2018-05-13T18:10:10.367Z,43.90
2018-05-13T18:12:38.616Z,44.40
2018-05-13T18:15:07.642Z,45.10
2018-05-13T18:17:35.885Z,45.10
2018-05-13T18:20:04.890Z,46.20
2018-05-13T18:22:33.131Z,46.20
2018-05-13T18:25:01.382Z,46.60
2018-05-13T18:27:29.738Z,47.40
2018-05-13T18:29:57.982Z,47.20
2018-05-13T18:32:26.979Z,47.70
2018-05-13T18:34:55.219Z,47.70
2018-05-13T18:37:23.546Z,47.90
2018-05-13T18:39:51.787Z,48.30
2018-05-13T18:42:20.791Z,48.50
2018-05-13T18:44:49.812Z,49.00
2018-05-13T18:47:18.047Z,49.00
2018-05-13T18:49:47.056Z,49.40
2018-05-13T18:52:15.294Z,49.40
2018-05-13T18:54:43.535Z,50.00
2018-05-13T18:57:11.799Z,50.30
2018-05-13T18:59:40.074Z,50.40
2018-05-13T19:02:08.306Z,51.30
2018-05-13T19:04:36.632Z,50.40
2018-05-13T19:07:04.903Z,51.10
2018-05-13T19:09:33.147Z,51.70
2018-05-13T19:12:02.191Z,51.40
2018-05-13T19:14:30.455Z,51.40
2018-05-13T19:16:58.720Z,51.00
2018-05-13T19:19:26.967Z,50.90
2018-05-13T19:21:55.975Z,50.20
2018-05-13T19:24:24.224Z,50.20
2018-05-13T19:26:53.267Z,50.80
2018-05-13T19:29:21.515Z,51.40
2018-05-13T19:31:49.747Z,51.30
2018-05-13T19:34:18.088Z,50.70
2018-05-13T19:36:46.430Z,52.90
2018-05-13T19:39:14.612Z,53.90
2018-05-13T19:41:42.918Z,54.60
2018-05-13T19:44:11.187Z,54.80
2018-05-13T19:46:39.464Z,55.20
2018-05-13T19:49:07.943Z,55.20
2018-05-13T19:51:36.213Z,53.90
2018-05-13T19:54:04.541Z,55.30
2018-05-13T19:56:32.763Z,55.90
2018-05-13T19:59:01.046Z,55.90
2018-05-13T20:01:29.320Z,56.40
2018-05-13T20:03:57.596Z,56.30
2018-05-13T20:06:25.868Z,56.90
2018-05-13T20:08:54.203Z,57.40
2018-05-13T20:11:22.391Z,57.70
2018-05-13T20:13:51.398Z,57.10
2018-05-13T20:16:19.639Z,57.20
2018-05-13T20:18:47.959Z,58.00
2018-05-13T20:21:16.212Z,58.30
2018-05-13T20:23:45.211Z,59.00
2018-05-13T20:26:13.512Z,59.00
2018-05-13T20:28:41.743Z,58.80
2018-05-13T20:31:10.771Z,56.80
2018-05-13T20:33:39.020Z,56.80
2018-05-13T20:36:08.040Z,55.50
2018-05-13T20:38:36.275Z,55.50
2018-05-13T20:41:05.283Z,56.50
2018-05-13T20:43:33.588Z,56.50
2018-05-13T20:46:01.862Z,56.20
2018-05-13T20:48:30.095Z,56.40
2018-05-13T20:50:59.131Z,57.10
2018-05-13T20:53:27.407Z,57.10
2018-05-13T20:55:55.674Z,58.90
2018-05-13T20:58:23.951Z,58.60
2018-05-13T21:00:52.235Z,59.30
2018-05-13T21:03:20.472Z,59.80
2018-05-13T21:05:49.482Z,60.60
2018-05-13T21:08:17.880Z,60.50
2018-05-13T21:10:46.151Z,60.90
2018-05-13T21:13:14.391Z,60.80
2018-05-13T21:15:43.395Z,61.10
2018-05-13T21:18:11.663Z,61.10
2018-05-13T21:20:40.687Z,61.60
2018-05-13T21:23:08.932Z,61.50
2018-05-13T21:25:37.935Z,62.30
2018-05-13T21:28:06.239Z,62.30
2018-05-13T21:30:34.512Z,62.40
2018-05-13T21:33:02.759Z,63.10
2018-05-13T21:35:31.751Z,63.00
2018-05-13T21:38:00.004Z,63.00
2018-05-13T21:40:28.323Z,63.60
2018-05-13T21:42:56.584Z,64.70
2018-05-13T21:45:25.580Z,64.40
2018-05-13T21:47:53.825Z,64.50
2018-05-13T21:50:22.144Z,64.60
2018-05-13T21:52:50.385Z,65.00
2018-05-13T21:55:19.382Z,65.10
2018-05-13T21:57:48.412Z,65.50
2018-05-13T22:00:16.641Z,65.40
2018-05-13T22:02:45.646Z,65.50
2018-05-13T22:05:14.655Z,65.40
2018-05-13T22:07:42.899Z,65.40
2018-05-13T22:10:11.931Z,65.70
2018-05-13T22:12:40.200Z,65.60
2018-05-13T22:15:08.451Z,65.80
2018-05-13T22:17:37.459Z,65.80
2018-05-13T22:20:05.703Z,65.80
2018-05-13T22:22:34.037Z,65.80
2018-05-13T22:25:02.291Z,67.20
2018-05-13T22:27:30.583Z,66.40
2018-05-13T22:29:58.854Z,66.70
2018-05-13T22:32:27.104Z,66.70
2018-05-13T22:34:55.419Z,66.90
2018-05-13T22:37:23.682Z,66.90
2018-05-13T22:39:51.920Z,67.20
2018-05-13T22:42:20.947Z,67.30
2018-05-13T22:44:49.226Z,67.20
2018-05-13T22:47:17.492Z,67.20
2018-05-13T22:49:46.479Z,67.70
2018-05-13T22:52:14.858Z,67.70
2018-05-13T22:54:43.015Z,67.90
2018-05-13T22:57:12.045Z,68.00
2018-05-13T22:59:40.282Z,67.90
2018-05-13T23:02:09.310Z,68.50
2018-05-13T23:04:37.583Z,68.50
2018-05-13T23:07:05.828Z,68.20
2018-05-13T23:09:34.836Z,68.80
2018-05-13T23:12:03.083Z,68.70
2018-05-13T23:14:31.403Z,69.00
2018-05-13T23:16:59.663Z,70.10
2018-05-13T23:19:27.951Z,69.10
2018-05-13T23:21:56.226Z,69.30
2018-05-13T23:24:24.498Z,69.60
2018-05-13T23:26:52.736Z,69.80
2018-05-13T23:29:21.819Z,70.00
2018-05-13T23:31:50.045Z,69.90
2018-05-13T23:34:18.319Z,69.90
2018-05-13T23:36:46.558Z,70.00
2018-05-13T23:39:15.588Z,70.90
2018-05-13T23:41:43.843Z,70.80
2018-05-13T23:44:12.091Z,71.20
2018-05-13T23:46:41.131Z,71.80
2018-05-13T23:49:09.384Z,71.10
2018-05-13T23:51:37.699Z,71.40
2018-05-13T23:54:05.870Z,71.60
2018-05-13T23:56:34.132Z,71.60
2018-05-13T23:59:02.422Z,71.80
